Time;durP1;ratioP1;P1;durP2;ratioP2;P2;SDS_P1;SDS_P2;PMS_P1;PMS_P2;Temp;Humidity;BMP_temperature;BMP_pressure;BME280_temperature;BME280_humidity;BME280_pressure;Samples;Min_cycle;Max_cycle;Signal;HPM_P1;HPM_P2
2022/05/14 00:01:20;;;;;;;6.75;2.00;;;;;;;12.03;58.79;98409.56;5071894;28;20036;-63
2022/05/14 00:03:47;;;;;;;5.90;2.00;;;;;;;12.09;58.79;98404.06;5053052;28;20041;-64
2022/05/14 00:06:20;;;;;;;3.15;1.63;;;;;;;12.08;59.44;98397.19;5043657;28;20079;-64
2022/05/14 00:08:47;;;;;;;4.07;1.80;;;;;;;12.03;59.42;98405.19;5051850;28;20029;-63
2022/05/14 00:13:58;;;;;;;6.65;2.33;;;;;;;12.01;58.79;98403.56;5047126;28;20040;-63
2022/05/14 00:16:25;;;;;;;5.45;1.73;;;;;;;11.64;59.19;98354.25;5030837;28;20026;-63
2022/05/14 00:18:52;;;;;;;3.05;1.75;;;;;;;11.70;58.55;98353.13;5035936;28;20029;-64
2022/05/14 00:21:19;;;;;;;5.13;1.70;;;;;;;11.90;59.73;98396.28;5051798;28;20021;-63
2022/05/14 00:23:45;;;;;;;6.50;1.70;;;;;;;11.94;59.72;98407.38;5051334;28;20434;-64
2022/05/14 00:26:11;;;;;;;4.85;2.05;;;;;;;11.82;59.85;98396.66;5032075;28;20025;-63
2022/05/14 00:28:38;;;;;;;6.13;1.60;;;;;;;11.92;59.62;98394.47;5035819;28;20132;-64
2022/05/14 00:31:04;;;;;;;4.57;2.20;;;;;;;11.94;59.82;98397.00;5040943;28;20021;-64
2022/05/14 00:33:30;;;;;;;3.92;1.98;;;;;;;11.94;59.76;98397.00;5036589;28;20047;-64
2022/05/14 00:35:56;;;;;;;4.30;2.05;;;;;;;11.92;59.87;98397.03;5051842;28;20029;-64
2022/05/14 00:38:21;;;;;;;5.05;2.22;;;;;;;11.97;59.45;98399.44;5051901;28;20443;-64
2022/05/14 00:40:55;;;;;;;4.47;2.00;;;;;;;11.91;60.10;98409.19;5017338;28;20021;-65
2022/05/14 00:43:21;;;;;;;4.55;2.13;;;;;;;11.88;59.84;98396.34;5030238;28;20108;-64
2022/05/14 00:45:53;;;;;;;4.63;2.10;;;;;;;11.47;59.96;98346.44;5032080;28;20025;-65
2022/05/14 00:48:19;;;;;;;;;;;;;;;11.76;60.12;98407.31;5041574;28;20041;-63
2022/05/14 00:50:50;;;;;;;5.40;2.15;;;;;;;11.77;59.81;98408.97;5071695;28;19954;-65
2022/05/14 00:53:18;;;;;;;;;;;;;;;11.68;61.00;98399.88;5068771;28;20398;-64
2022/05/14 00:55:46;;;;;;;3.50;1.83;;;;;;;11.77;60.32;98395.19;5067941;28;19913;-64
2022/05/14 00:58:22;;;;;;;3.53;1.58;;;;;;;11.57;60.17;98371.88;5046509;28;20025;-64
2022/05/14 01:00:47;;;;;;;5.85;1.60;;;;;;;11.63;60.18;98394.09;5034880;28;20033;-64
2022/05/14 01:03:14;;;;;;;4.35;1.90;;;;;;;11.59;60.77;98397.72;5059228;28;20104;-64
2022/05/14 01:05:40;;;;;;;4.40;2.00;;;;;;;11.61;60.49;98387.28;5042592;28;20040;-64
2022/05/14 01:08:05;;;;;;;4.10;1.95;;;;;;;11.62;60.76;98391.56;5071012;28;20104;-63
2022/05/14 01:10:41;;;;;;;5.07;2.15;;;;;;;11.60;61.07;98390.78;5042756;28;20022;-64
2022/05/14 01:13:07;;;;;;;3.80;1.90;;;;;;;11.58;61.02;98391.69;5031506;28;20031;-64
2022/05/14 01:15:51;;;;;;;3.05;1.70;;;;;;;11.25;60.42;98338.84;5031799;28;20056;-63
2022/05/14 01:18:20;;;;;;;3.67;1.88;;;;;;;11.28;61.50;98329.16;5040055;28;20066;-63
2022/05/14 01:21:00;;;;;;;4.15;1.70;;;;;;;11.48;60.73;98374.88;5066600;28;20410;-64
2022/05/14 01:26:27;;;;;;;3.72;1.83;;;;;;;11.52;60.56;98384.19;5035018;28;20022;-63
2022/05/14 01:26:29;;;;;;;6.80;1.85;;;;;;;11.53;60.94;98382.47;5035424;28;20065;-63
2022/05/14 01:29:01;;;;;;;3.60;2.05;;;;;;;11.44;61.44;98393.25;5064263;28;20025;-63
2022/05/14 01:31:28;;;;;;;4.20;1.83;;;;;;;11.49;61.53;98379.16;5055128;28;20040;-64
2022/05/14 01:34:08;;;;;;;4.75;1.65;;;;;;;11.13;61.31;98320.34;5045663;28;20487;-63
2022/05/14 01:36:36;;;;;;;3.40;1.70;;;;;;;11.07;61.41;98323.19;5054656;28;20496;-64
2022/05/14 01:39:03;;;;;;;4.50;1.77;;;;;;;11.36;61.56;98373.72;5054863;28;20028;-64
2022/05/14 01:41:28;;;;;;;3.33;1.73;;;;;;;11.39;61.75;98375.31;5054892;28;20025;-65
2022/05/14 01:43:54;;;;;;;6.05;2.17;;;;;;;11.38;61.72;98374.47;5054558;28;20035;-63
2022/05/14 01:46:20;;;;;;;5.20;1.80;;;;;;;11.46;61.56;98371.53;5054828;28;20086;-64
2022/05/14 01:48:46;;;;;;;3.00;1.70;;;;;;;11.39;61.54;98378.75;5045227;28;20087;-63
2022/05/14 01:51:12;;;;;;;4.00;1.55;;;;;;;11.44;61.30;98380.28;5033554;28;20041;-64
2022/05/14 01:53:38;;;;;;;6.35;1.60;;;;;;;11.33;61.68;98365.22;5040902;28;20029;-63
2022/05/14 01:56:04;;;;;;;4.72;1.90;;;;;;;11.47;61.54;98370.63;5036118;28;20030;-64
2022/05/14 01:58:38;;;;;;;3.35;1.63;;;;;;;11.50;62.04;98367.88;5052402;28;20049;-63
2022/05/14 02:01:16;;;;;;;3.38;1.83;;;;;;;11.21;61.28;98320.81;5054583;28;20079;-64
2022/05/14 02:03:46;;;;;;;5.43;2.00;;;;;;;11.52;61.42;98363.47;5054210;28;20021;-65
2022/05/14 02:06:13;;;;;;;2.83;1.70;;;;;;;11.55;62.26;98378.88;5051408;28;20029;-63
2022/05/14 02:08:39;;;;;;;2.10;1.52;;;;;;;11.55;61.61;98375.44;5034313;28;20130;-62
2022/05/14 02:11:05;;;;;;;4.43;1.98;;;;;;;11.54;61.94;98373.75;5034552;28;20025;-63
2022/05/14 02:13:31;;;;;;;3.25;1.80;;;;;;;11.64;61.86;98382.78;5048071;28;20029;-63
2022/05/14 02:15:57;;;;;;;5.68;1.85;;;;;;;11.42;62.22;98384.72;5044880;28;20044;-62
2022/05/14 02:18:23;;;;;;;4.43;1.52;;;;;;;11.82;60.69;98377.66;5038829;28;20029;-63
2022/05/14 02:20:49;;;;;;;4.38;1.77;;;;;;;12.52;59.27;98381.16;5052000;28;20081;-64
2022/05/14 02:23:15;;;;;;;5.70;1.70;;;;;;;12.62;58.44;98388.50;5034131;28;20032;-63
2022/05/14 02:25:42;;;;;;;5.13;1.83;;;;;;;12.53;58.03;98385.44;5037518;28;20025;-62
2022/05/14 02:28:08;;;;;;;5.97;1.90;;;;;;;13.02;57.59;98383.81;5033674;28;20372;-63
2022/05/14 02:30:34;;;;;;;5.13;1.73;;;;;;;13.81;56.27;98380.47;5046572;28;20503;-63
2022/05/14 02:33:00;;;;;;;4.03;1.50;;;;;;;14.71;53.32;98376.19;5048846;28;20120;-64
2022/05/14 02:35:26;;;;;;;1.70;1.20;;;;;;;14.96;51.99;98383.38;5042527;28;20074;-63
2022/05/14 02:37:51;;;;;;;3.80;1.77;;;;;;;15.01;51.51;98383.09;5053764;28;20029;-64
2022/05/14 02:40:17;;;;;;;3.70;1.40;;;;;;;15.48;50.36;98386.31;5052218;28;20124;-64
2022/05/14 02:42:42;;;;;;;4.22;1.45;;;;;;;15.41;50.84;98385.84;5046518;28;20025;-64
2022/05/14 02:45:09;;;;;;;1.83;1.50;;;;;;;14.97;51.45;98387.66;5038179;28;20475;-64
2022/05/14 02:47:35;;;;;;;2.38;1.25;;;;;;;14.81;51.12;98389.50;5073620;28;20021;-64
2022/05/14 02:50:01;;;;;;;5.07;1.70;;;;;;;14.37;53.03;98377.31;5073452;28;20377;-63
2022/05/14 02:52:27;;;;;;;2.03;1.10;;;;;;;14.56;52.75;98385.72;5047406;28;20140;-65
2022/05/14 02:54:52;;;;;;;3.05;1.90;;;;;;;14.69;52.14;98385.84;5043525;28;20033;-62
2022/05/14 02:57:18;;;;;;;4.15;1.15;;;;;;;14.44;53.58;98395.09;5040224;28;20033;-64
2022/05/14 02:59:43;;;;;;;2.58;1.38;;;;;;;14.33;53.44;98385.28;5073707;28;20064;-63
2022/05/14 03:02:09;;;;;;;2.78;1.20;;;;;;;14.08;54.06;98390.22;5073533;28;20355;-63
2022/05/14 03:04:37;;;;;;;3.78;1.50;;;;;;;13.96;54.60;98394.38;5045320;28;20056;-63
2022/05/14 03:07:07;;;;;;;1.33;1.13;;;;;;;14.09;52.87;98399.72;5043386;28;20435;-63
2022/05/14 03:09:34;;;;;;;4.47;1.20;;;;;;;14.63;53.53;98389.66;5033279;28;20026;-62
2022/05/14 03:12:00;;;;;;;2.80;1.50;;;;;;;14.61;53.01;98394.09;5034209;28;20395;-62
2022/05/14 03:14:26;;;;;;;5.50;1.52;;;;;;;14.54;52.69;98397.19;5052882;28;20017;-63
2022/05/14 03:16:51;;;;;;;3.03;1.40;;;;;;;14.21;52.78;98399.03;5036870;28;20099;-63
2022/05/14 03:19:17;;;;;;;4.95;1.80;;;;;;;14.27;53.85;98401.28;5033085;28;20022;-63
2022/05/14 03:21:43;;;;;;;2.50;1.50;;;;;;;14.09;53.39;98394.50;5033165;28;20026;-63
2022/05/14 03:24:10;;;;;;;2.50;1.25;;;;;;;13.88;54.56;98402.63;5036368;28;20024;-63
2022/05/14 03:26:37;;;;;;;4.00;1.50;;;;;;;14.24;54.48;98392.81;5031558;28;20419;-64
2022/05/14 03:29:03;;;;;;;4.45;1.65;;;;;;;14.80;53.14;98393.88;5038020;28;20518;-64
2022/05/14 03:31:31;;;;;;;3.50;1.48;;;;;;;15.04;51.58;98398.56;5039645;28;20044;-63
2022/05/14 03:33:57;;;;;;;2.92;1.42;;;;;;;15.18;51.36;98395.94;5032397;28;20076;-64
2022/05/14 03:36:23;;;;;;;2.15;1.20;;;;;;;15.08;51.88;98407.00;5048683;28;20032;-63
2022/05/14 03:38:49;;;;;;;2.80;1.40;;;;;;;14.87;51.98;98402.16;5032908;28;20059;-63
2022/05/14 03:41:16;;;;;;;2.38;1.20;;;;;;;15.06;51.86;98401.88;5042525;28;20029;-62
2022/05/14 03:43:44;;;;;;;5.22;1.60;;;;;;;14.85;51.90;98401.44;5036968;28;20175;-63
2022/05/14 03:46:10;;;;;;;3.65;1.65;;;;;;;14.56;53.10;98418.75;5032424;28;20071;-63
2022/05/14 03:48:36;;;;;;;6.50;1.38;;;;;;;14.87;51.67;98409.16;5043713;28;20033;-63
2022/05/14 03:51:03;;;;;;;3.20;1.35;;;;;;;14.45;53.70;98414.16;5061914;28;20032;-62
2022/05/14 03:53:29;;;;;;;4.47;1.52;;;;;;;14.76;52.57;98412.41;5052269;28;20087;-63
2022/05/14 03:55:55;;;;;;;3.17;1.30;;;;;;;14.45;53.05;98411.56;5068382;28;20025;-62
2022/05/14 03:58:20;;;;;;;2.10;1.20;;;;;;;13.97;53.87;98411.69;5072043;28;20028;-62
2022/05/14 04:00:46;;;;;;;3.03;1.42;;;;;;;14.15;54.27;98423.66;5058398;28;20413;-63
2022/05/14 04:03:12;;;;;;;3.03;1.30;;;;;;;14.12;53.51;98416.03;5031874;28;20059;-64
2022/05/14 04:05:38;;;;;;;4.13;1.80;;;;;;;14.29;53.51;98416.81;5040427;28;20029;-64
2022/05/14 04:08:03;;;;;;;3.72;1.63;;;;;;;14.19;53.91;98411.28;5069509;28;20546;-64
2022/05/14 04:10:30;;;;;;;4.00;1.50;;;;;;;14.19;53.56;98410.47;5046139;28;20399;-64
2022/05/14 04:12:56;;;;;;;3.72;1.58;;;;;;;14.21;54.75;98408.59;5031853;28;20031;-64
2022/05/14 04:15:23;;;;;;;2.38;1.50;;;;;;;13.88;54.71;98407.81;5031965;28;20147;-65
2022/05/14 04:17:50;;;;;;;2.80;1.30;;;;;;;14.15;54.08;98412.38;5032245;28;20030;-64
2022/05/14 04:20:16;;;;;;;2.85;1.40;;;;;;;14.15;54.35;98414.97;5046163;28;20100;-63
2022/05/14 04:22:43;;;;;;;3.55;1.40;;;;;;;14.12;54.31;98407.34;5040104;28;20477;-64
2022/05/14 04:25:09;;;;;;;3.40;1.35;;;;;;;14.52;53.61;98414.66;5044353;28;20029;-64
2022/05/14 04:27:34;;;;;;;2.92;1.33;;;;;;;14.63;52.53;98407.91;5056468;28;20478;-63
2022/05/14 04:30:00;;;;;;;4.10;1.45;;;;;;;15.01;52.18;98398.75;5058604;28;20128;-64
2022/05/14 04:32:26;;;;;;;5.50;1.25;;;;;;;15.27;50.42;98399.75;5051338;28;20104;-64
2022/05/14 04:34:51;;;;;;;3.97;1.30;;;;;;;15.47;50.57;98395.91;5055694;28;20041;-63
2022/05/14 04:37:17;;;;;;;2.78;1.27;;;;;;;15.75;50.14;98396.78;5031731;28;20025;-64
2022/05/14 04:39:42;;;;;;;2.25;1.33;;;;;;;16.16;49.47;98393.31;5048430;28;20040;-64
2022/05/14 04:42:10;;;;;;;6.25;1.60;;;;;;;16.54;48.36;98396.91;5052666;28;20044;-64
2022/05/14 04:44:37;;;;;;;2.28;1.23;;;;;;;16.78;47.68;98402.28;5071437;28;20147;-63
2022/05/14 04:47:04;;;;;;;2.30;1.45;;;;;;;17.41;46.02;98390.13;5055877;28;20052;-64
2022/05/14 04:49:30;;;;;;;2.15;1.10;;;;;;;18.09;44.40;98393.13;5059972;28;20017;-64
2022/05/14 04:51:56;;;;;;;3.13;1.23;;;;;;;18.63;43.65;98383.06;5053578;28;20663;-63
2022/05/14 04:54:22;;;;;;;3.15;1.30;;;;;;;18.63;42.85;98386.50;5054534;28;20020;-63
2022/05/14 04:56:49;;;;;;;4.70;1.67;;;;;;;18.59;42.44;98392.94;5068528;28;20100;-63
2022/05/14 04:59:14;;;;;;;2.95;1.10;;;;;;;19.63;41.32;98388.44;5036925;28;20022;-63
2022/05/14 05:03:16;;;;;;;3.78;0.98;;;;;;;19.94;41.16;98386.00;5049349;28;20116;-63
2022/05/14 05:04:33;;;;;;;2.15;1.20;;;;;;;20.25;39.39;98386.13;5053948;28;20037;-64
2022/05/14 05:06:58;;;;;;;1.88;0.98;;;;;;;20.20;39.58;98385.66;5047227;28;20189;-64
2022/05/14 05:09:24;;;;;;;4.28;1.20;;;;;;;20.30;39.33;98385.75;5039874;28;20118;-63
2022/05/14 05:11:50;;;;;;;3.28;1.20;;;;;;;19.99;39.29;98383.84;5034087;28;20400;-64
2022/05/14 05:14:17;;;;;;;3.70;1.38;;;;;;;20.28;38.36;98375.34;5053719;28;20071;-64
2022/05/14 05:16:42;;;;;;;3.22;1.40;;;;;;;20.43;38.49;98375.84;5062329;28;20591;-64
2022/05/14 05:19:08;;;;;;;2.28;1.20;;;;;;;20.60;37.84;98384.16;5045917;28;20033;-64
2022/05/14 05:21:33;;;;;;;3.75;1.33;;;;;;;20.56;38.42;98372.22;5039281;28;20071;-64
2022/05/14 05:24:00;;;;;;;3.15;1.23;;;;;;;20.80;39.07;98375.41;5054702;28;20048;-64
2022/05/14 05:26:25;;;;;;;1.95;1.20;;;;;;;20.46;38.44;98375.59;5074258;28;20036;-63
2022/05/14 05:28:51;;;;;;;4.20;1.33;;;;;;;19.96;39.07;98385.88;5069987;28;20028;-64
2022/05/14 05:31:17;;;;;;;3.13;1.38;;;;;;;19.92;39.39;98381.81;5074981;28;20382;-64
2022/05/14 05:33:43;;;;;;;2.50;1.20;;;;;;;20.22;38.26;98378.47;5064949;28;20046;-65
2022/05/14 05:36:09;;;;;;;2.90;1.20;;;;;;;20.92;37.59;98372.69;5054348;28;20056;-64
2022/05/14 05:38:34;;;;;;;5.22;1.40;;;;;;;21.48;36.60;98379.31;5054854;28;20021;-65
2022/05/14 05:41:00;;;;;;;3.17;1.38;;;;;;;21.30;37.57;98373.84;5064138;28;20032;-64
2022/05/14 05:43:26;;;;;;;2.22;1.20;;;;;;;20.77;37.43;98374.88;5054478;28;20020;-64
2022/05/14 05:45:52;;;;;;;3.40;1.10;;;;;;;20.51;37.46;98365.53;5054436;28;20390;-65
2022/05/14 05:48:18;;;;;;;5.38;1.27;;;;;;;20.84;37.68;98371.56;5056397;28;20036;-65
2022/05/14 05:50:48;;;;;;;2.97;1.23;;;;;;;20.86;37.30;98377.53;5074455;28;20099;-65
2022/05/14 05:53:14;;;;;;;1.67;0.90;;;;;;;20.48;38.14;98375.50;5071220;28;20017;-65
2022/05/14 05:58:24;;;;;;;2.47;1.15;;;;;;;20.28;38.54;98372.72;5059786;28;20120;-63
2022/05/14 06:00:50;;;;;;;2.25;0.80;;;;;;;19.37;39.06;98373.91;5060594;28;20029;-63
2022/05/14 06:03:16;;;;;;;5.22;1.10;;;;;;;18.87;39.65;98377.75;5039786;28;20104;-64
2022/05/14 06:05:42;;;;;;;2.67;1.25;;;;;;;18.90;39.84;98382.75;5056813;28;20017;-64
2022/05/14 06:08:09;;;;;;;3.63;1.05;;;;;;;18.91;39.04;98379.19;5054446;28;20121;-64
2022/05/14 06:10:35;;;;;;;2.28;0.90;;;;;;;18.63;39.16;98381.25;5053554;28;20025;-66
2022/05/14 06:13:00;;;;;;;4.10;1.02;;;;;;;18.87;39.63;98387.41;5052561;28;20043;-63
2022/05/14 06:15:26;;;;;;;2.28;1.02;;;;;;;18.75;39.03;98379.47;5056605;28;20493;-65
2022/05/14 06:17:51;;;;;;;3.40;0.93;;;;;;;18.87;39.39;98379.53;5074138;28;20025;-64
2022/05/14 06:20:18;;;;;;;2.30;0.95;;;;;;;18.61;39.30;98375.31;5035834;28;20040;-63
2022/05/14 06:22:44;;;;;;;4.95;1.02;;;;;;;18.63;38.90;98369.94;5051155;28;20033;-65
2022/05/14 06:25:11;;;;;;;2.50;0.90;;;;;;;18.60;38.92;98372.81;5063070;28;20424;-64
2022/05/14 06:27:37;;;;;;;2.83;0.90;;;;;;;18.67;38.31;98366.13;5066423;28;20037;-63
2022/05/14 06:30:03;;;;;;;4.18;1.15;;;;;;;18.59;38.29;98368.50;5054077;28;20017;-63
2022/05/14 06:32:29;;;;;;;2.45;0.88;;;;;;;18.58;39.11;98366.81;5053443;28;20031;-64
2022/05/14 06:34:55;;;;;;;4.35;0.82;;;;;;;18.50;38.93;98356.06;5052482;28;20029;-64
2022/05/14 06:37:20;;;;;;;3.15;1.00;;;;;;;18.46;38.42;98353.69;5053635;28;20040;-64
2022/05/14 06:39:46;;;;;;;2.15;0.80;;;;;;;18.05;38.99;98375.13;5053413;28;20148;-65
2022/05/14 06:42:13;;;;;;;4.43;1.10;;;;;;;17.94;38.52;98362.81;5052897;28;20114;-64
2022/05/14 06:44:40;;;;;;;2.15;0.82;;;;;;;18.23;37.71;98370.34;5033615;28;20034;-64
2022/05/14 06:47:06;;;;;;;2.55;0.90;;;;;;;18.68;37.84;98370.41;5039253;28;20025;-65
2022/05/14 06:49:31;;;;;;;0.82;0.80;;;;;;;18.80;37.54;98366.84;5063821;28;20027;-65
2022/05/14 06:52:01;;;;;;;2.22;0.90;;;;;;;18.43;37.62;98311.97;5049844;28;20075;-63
2022/05/14 06:54:29;;;;;;;1.88;0.82;;;;;;;18.77;37.77;98356.59;5049278;28;20117;-63
2022/05/14 06:56:54;;;;;;;1.38;0.80;;;;;;;18.56;38.13;98345.97;5068369;28;20039;-63
2022/05/14 06:59:20;;;;;;;1.38;0.85;;;;;;;18.86;38.37;98356.84;5055379;28;20424;-63
2022/05/14 07:01:47;;;;;;;3.28;1.10;;;;;;;18.76;36.99;98312.97;5067193;28;20451;-62
2022/05/14 07:07:03;;;;;;;5.78;1.20;;;;;;;18.69;36.64;98363.41;5042501;28;20036;-63
2022/05/14 07:09:29;;;;;;;17.85;3.08;;;;;;;18.99;36.25;98360.22;5035988;28;20099;-62
2022/05/14 07:11:59;;;;;;;3.22;1.08;;;;;;;19.39;36.58;98343.13;5050438;28;20111;-63
2022/05/14 07:14:26;;;;;;;3.25;1.00;;;;;;;19.50;36.62;98343.13;5051905;28;20021;-63
2022/05/14 07:16:53;;;;;;;3.78;1.45;;;;;;;19.37;37.30;98359.00;5051024;28;20071;-63
2022/05/14 07:19:19;;;;;;;1.58;1.25;;;;;;;19.34;36.90;98358.41;5052734;28;20379;-62
2022/05/14 07:21:47;;;;;;;3.20;1.10;;;;;;;19.14;36.57;98309.16;5050788;28;20037;-63
2022/05/14 07:24:16;;;;;;;1.15;0.93;;;;;;;19.26;36.22;98357.22;5052971;28;20112;-62
2022/05/14 07:26:42;;;;;;;2.35;1.02;;;;;;;19.24;36.48;98350.41;5056473;28;20718;-62
2022/05/14 07:29:11;;;;;;;3.53;1.10;;;;;;;19.14;38.00;98345.09;5054418;28;20103;-63
2022/05/14 07:31:36;;;;;;;1.77;0.93;;;;;;;19.13;36.85;98341.59;5050180;28;20060;-63
2022/05/14 07:34:03;;;;;;;3.95;1.48;;;;;;;18.99;37.91;98362.03;5042559;28;20135;-62
2022/05/14 07:36:32;;;;;;;3.90;1.08;;;;;;;18.52;37.31;98335.84;5047937;28;20040;-63
2022/05/14 07:39:02;;;;;;;5.07;1.10;;;;;;;18.31;37.52;98322.56;5050866;28;20028;-64
2022/05/14 07:41:29;;;;;;;3.35;1.42;;;;;;;18.32;37.45;98346.03;5042818;28;20033;-62
2022/05/14 07:43:58;;;;;;;3.20;1.00;;;;;;;18.17;37.92;98341.94;5036118;28;20851;-62
2022/05/14 07:46:28;;;;;;;2.75;2.10;;;;;;;17.79;38.00;98332.50;5041556;28;20032;-62
2022/05/14 07:48:56;;;;;;;6.15;1.67;;;;;;;17.59;39.17;98350.47;5052521;28;20047;-64
2022/05/14 07:51:22;;;;;;;5.47;1.80;;;;;;;17.55;38.84;98354.25;5047621;28;20017;-63
2022/05/14 07:53:48;;;;;;;5.88;1.58;;;;;;;17.55;38.60;98336.75;5046638;28;20032;-63
2022/05/14 07:56:13;;;;;;;2.42;1.25;;;;;;;17.05;37.82;98331.56;5053076;28;20192;-61
2022/05/14 07:58:43;;;;;;;4.65;1.40;;;;;;;17.16;37.59;98345.66;5045082;28;20128;-63
2022/05/14 08:01:09;;;;;;;4.28;1.10;;;;;;;17.23;37.92;98349.56;5050271;28;20029;-62
2022/05/14 08:03:35;;;;;;;4.20;1.25;;;;;;;17.49;36.59;98336.38;5049111;28;20107;-64
2022/05/14 08:06:01;;;;;;;5.35;1.02;;;;;;;17.76;35.91;98342.22;5050302;28;20607;-63
2022/05/14 08:08:27;;;;;;;4.50;1.05;;;;;;;17.97;36.02;98346.91;5058376;28;20079;-63
2022/05/14 08:10:53;;;;;;;2.67;1.40;;;;;;;18.10;36.24;98345.03;5038172;28;20022;-61
2022/05/14 08:13:22;;;;;;;4.47;1.00;;;;;;;17.77;35.69;98303.78;5050037;28;20036;-62
2022/05/14 08:15:49;;;;;;;3.08;1.25;;;;;;;18.25;35.62;98334.34;5056741;28;20059;-62
2022/05/14 08:18:16;;;;;;;5.93;1.33;;;;;;;18.51;36.05;98319.25;5053021;28;20052;-62
2022/05/14 08:20:44;;;;;;;5.30;1.40;;;;;;;18.27;35.84;98328.03;5071672;28;20032;-62
2022/05/14 08:25:57;;;;;;;4.25;1.20;;;;;;;17.77;36.94;98338.69;5066112;28;20056;-63
2022/05/14 08:28:23;;;;;;;2.22;1.05;;;;;;;17.77;37.28;98343.06;5067758;28;20035;-63
2022/05/14 08:30:49;;;;;;;4.03;1.40;;;;;;;17.62;37.57;98347.63;5071774;28;20032;-64
2022/05/14 08:33:14;;;;;;;5.60;1.20;;;;;;;17.51;37.96;98334.47;5053575;28;20049;-64
2022/05/14 08:35:41;;;;;;;3.22;1.42;;;;;;;17.55;38.06;98346.41;5038257;28;20034;-64
2022/05/14 08:38:10;;;;;;;3.05;1.15;;;;;;;17.47;39.29;98349.56;5050664;28;20040;-63
2022/05/14 08:40:41;;;;;;;8.00;4.13;;;;;;;17.27;38.27;98321.38;5056701;28;20029;-63
2022/05/14 08:43:17;;;;;;;7.55;2.42;;;;;;;17.40;37.70;98343.09;5043059;28;20030;-63
2022/05/14 08:45:43;;;;;;;6.00;1.17;;;;;;;17.88;38.34;98327.41;5038932;28;20102;-63
2022/05/14 08:48:20;;;;;;;6.13;1.40;;;;;;;18.06;37.34;98333.09;5050555;28;20218;-62
2022/05/14 08:50:54;;;;;;;4.65;1.45;;;;;;;18.29;37.21;98334.00;5031597;28;20094;-63
2022/05/14 08:53:24;;;;;;;6.45;1.88;;;;;;;18.46;37.33;98332.72;5047309;28;20488;-63
2022/05/14 08:56:01;;;;;;;4.22;1.30;;;;;;;18.20;36.18;98329.47;5035142;28;20037;-65
2022/05/14 08:58:37;;;;;;;40.53;23.67;;;;;;;17.72;35.65;98288.41;5051890;28;20043;-64
2022/05/14 09:01:05;;;;;;;6.28;1.92;;;;;;;17.86;35.94;98349.44;5057329;28;20029;-64
2022/05/14 09:03:32;;;;;;;2.83;1.20;;;;;;;17.56;36.59;98341.06;5036624;28;20161;-64
2022/05/14 09:05:58;;;;;;;3.70;1.10;;;;;;;17.68;36.24;98341.94;5042104;28;20549;-64
2022/05/14 09:08:24;;;;;;;3.38;1.33;;;;;;;17.55;36.48;98330.69;5068667;28;20036;-62
2022/05/14 09:11:05;;;;;;;2.85;1.10;;;;;;;17.13;37.44;98283.97;5056344;28;20032;-62
2022/05/14 09:13:41;;;;;;;5.97;1.40;;;;;;;17.06;38.44;98309.69;5051027;28;20167;-62
2022/05/14 09:16:18;;;;;;;7.95;1.50;;;;;;;17.05;39.30;98334.19;5058224;28;20540;-63
2022/05/14 09:18:48;;;;;;;2.83;1.58;;;;;;;17.14;38.71;98339.72;5041237;28;20036;-61
2022/05/14 09:21:36;;;;;;;3.25;1.20;;;;;;;17.03;38.38;98345.69;5046124;28;20036;-62
2022/05/14 09:24:28;;;;;;;4.05;1.30;;;;;;;17.25;37.56;98334.56;5045140;28;20033;-61
2022/05/14 09:27:07;;;;;;;5.15;1.80;;;;;;;17.52;37.60;98310.81;5030016;28;20037;-61
2022/05/14 09:29:38;;;;;;;6.05;1.50;;;;;;;17.45;37.35;98320.06;5048460;28;20052;-63
2022/05/14 09:32:06;;;;;;;;;;;;;;;17.68;37.04;98320.19;5049979;28;20395;-63
2022/05/14 09:34:34;;;;;;;9.00;1.63;;;;;;;17.47;38.25;98306.84;5046069;28;19916;-63
2022/05/14 09:37:08;;;;;;;5.75;1.35;;;;;;;17.28;37.93;98318.63;5049376;28;20037;-62
2022/05/14 09:39:33;;;;;;;6.53;1.95;;;;;;;17.45;38.08;98319.22;5048071;28;20042;-63
2022/05/14 09:42:01;;;;;;;2.20;1.48;;;;;;;17.62;37.74;98310.16;5052158;28;20100;-62
2022/05/14 09:44:29;;;;;;;3.90;1.40;;;;;;;17.91;36.93;98310.66;5068028;28;20356;-62
2022/05/14 09:47:11;;;;;;;3.42;1.35;;;;;;;18.04;37.98;98316.66;5067900;28;20024;-63
2022/05/14 09:49:39;;;;;;;4.55;1.63;;;;;;;17.51;37.25;98305.69;5050997;28;20057;-62
2022/05/14 09:52:10;;;;;;;11.00;1.98;;;;;;;17.17;37.30;98308.09;5052025;28;20108;-63
2022/05/14 09:54:47;;;;;;;3.67;1.30;;;;;;;16.95;38.43;98265.16;5051343;28;20104;-62
2022/05/14 09:57:24;;;;;;;3.90;1.70;;;;;;;17.33;36.97;98305.22;5033459;28;20503;-62
2022/05/14 10:00:22;;;;;;;3.15;1.20;;;;;;;17.42;37.00;98292.31;5037643;28;20043;-63
2022/05/14 10:03:06;;;;;;;4.57;1.48;;;;;;;17.46;37.16;98305.19;5041911;28;20491;-60
2022/05/14 10:06:09;;;;;;;6.82;1.63;;;;;;;17.71;38.00;98299.81;5051648;28;20029;-61
2022/05/14 10:08:43;;;;;;;3.03;1.33;;;;;;;17.64;37.86;98303.00;5053660;28;20025;-61
2022/05/14 10:11:34;;;;;;;5.28;1.40;;;;;;;17.22;36.76;98296.38;5045400;28;20160;-60
2022/05/14 10:14:21;;;;;;;4.17;1.33;;;;;;;17.21;37.44;98302.53;5053822;28;20048;-61
2022/05/14 10:17:09;;;;;;;3.00;1.10;;;;;;;17.09;37.88;98298.19;5053296;28;20414;-62
2022/05/14 10:20:11;;;;;;;6.18;1.30;;;;;;;17.14;38.28;98303.09;5043301;28;20099;-59
2022/05/14 10:28:56;;;;;;;4.32;1.35;;;;;;;17.41;39.85;98314.22;5035190;28;20040;-60
2022/05/14 10:31:33;;;;;;;2.28;1.52;;;;;;;17.34;39.56;98268.47;5033918;28;20022;-61
2022/05/14 10:34:05;;;;;;;5.25;1.40;;;;;;;17.77;38.40;98304.63;5039167;28;20494;-61
2022/05/14 10:37:14;;;;;;;3.70;1.17;;;;;;;17.79;38.31;98301.06;5051379;28;20033;-62
2022/05/14 10:40:04;;;;;;;6.20;1.48;;;;;;;17.82;38.46;98299.03;4997422;28;20096;-61
2022/05/14 10:43:00;;;;;;;6.43;1.60;;;;;;;18.01;38.44;98288.06;5030972;28;20040;-59
2022/05/14 10:45:31;;;;;;;5.03;1.95;;;;;;;17.89;37.80;98228.72;5042450;28;20052;-60
2022/05/14 10:47:57;;;;;;;;;;;;;;;17.88;36.84;98289.91;5052216;28;20020;-61
2022/05/14 10:50:29;;;;;;;3.75;1.83;;;;;;;17.93;37.13;98293.06;5038296;28;19947;-59
2022/05/14 10:52:57;;;;;;;4.18;1.20;;;;;;;17.58;38.13;98285.97;5044554;28;20033;-59
2022/05/14 10:55:29;;;;;;;4.15;1.77;;;;;;;17.46;39.35;98306.03;5043690;28;20387;-58
2022/05/14 10:58:02;;;;;;;1.90;1.15;;;;;;;17.13;39.06;98254.31;5033129;28;20105;-60
2022/05/14 11:00:30;;;;;;;5.07;1.38;;;;;;;17.51;39.32;98301.28;5033776;28;20049;-60
2022/05/14 11:02:57;;;;;;;3.65;1.30;;;;;;;17.55;40.00;98294.06;5035378;28;20029;-59
2022/05/14 11:05:35;;;;;;;3.50;1.27;;;;;;;17.65;39.13;98283.75;5050070;28;20036;-59
2022/05/14 11:08:12;;;;;;;4.47;1.90;;;;;;;17.72;37.62;98292.81;5051980;28;20029;-59
2022/05/14 11:10:38;;;;;;;3.55;1.90;;;;;;;17.81;38.92;98296.53;5063026;28;20025;-61
2022/05/14 11:13:25;;;;;;;2.28;1.08;;;;;;;18.03;37.02;98272.25;5063234;28;20027;-61
2022/05/14 11:16:06;;;;;;;3.42;1.38;;;;;;;18.07;34.72;98282.38;5051663;28;20505;-61
2022/05/14 11:18:45;;;;;;;4.25;1.30;;;;;;;18.20;36.00;98258.69;5050302;28;20463;-61
2022/05/14 11:21:10;;;;;;;3.58;1.20;;;;;;;18.33;36.33;98262.97;5043367;28;20025;-61
2022/05/14 11:23:49;;;;;;;6.25;1.30;;;;;;;17.98;35.82;98266.50;5049774;28;20150;-61
2022/05/14 11:26:17;;;;;;;5.03;1.40;;;;;;;17.96;35.91;98261.38;5051919;28;20553;-62
2022/05/14 11:28:44;;;;;;;5.50;1.60;;;;;;;17.64;36.62;98263.75;5063726;28;20478;-61
2022/05/14 11:31:19;;;;;;;4.55;1.45;;;;;;;17.77;38.00;98267.97;5062945;28;20029;-62
2022/05/14 11:33:47;;;;;;;4.05;1.30;;;;;;;17.59;38.33;98248.38;5050522;28;20061;-61
2022/05/14 11:36:12;;;;;;;5.03;1.50;;;;;;;17.54;37.56;98256.56;5051821;28;20072;-61
2022/05/14 11:38:44;;;;;;;3.35;1.25;;;;;;;17.40;37.42;98220.94;5050225;28;20100;-62
2022/05/14 11:41:32;;;;;;;5.00;2.10;;;;;;;17.94;37.24;98237.06;5050355;28;20397;-60
2022/05/14 11:43:57;;;;;;;6.18;2.08;;;;;;;18.01;36.69;98248.75;5046502;28;20059;-61
2022/05/14 11:46:32;;;;;;;3.08;1.50;;;;;;;18.11;35.81;98255.00;5050878;28;20102;-60
2022/05/14 11:49:07;;;;;;;6.05;1.73;;;;;;;18.17;36.77;98266.78;5051083;28;20056;-60
2022/05/14 11:51:50;;;;;;;2.65;1.20;;;;;;;17.85;36.33;98240.38;5050609;28;20036;-60
2022/05/14 11:54:43;;;;;;;6.13;1.52;;;;;;;17.82;37.12;98253.69;5043877;28;20075;-60
2022/05/14 11:57:46;;;;;;;4.38;1.65;;;;;;;17.83;36.64;98255.34;5040517;28;20024;-62
2022/05/14 12:00:14;;;;;;;2.38;1.40;;;;;;;17.83;37.63;98268.44;5032313;28;20041;-62
2022/05/14 12:02:59;;;;;;;3.40;1.55;;;;;;;17.55;38.39;98283.59;5047070;28;20065;-61